Current Ellington METAR:

KEFD 102150Z 34012KT 10SM CLR 29/02 A2972


Current Ellington TAF:

TAF KEFD 102000Z 1020/1202 33012G18KT 9999 SKC QNH2975INS BECMG 1023/1024 36009KT 9999 SKC QNH2970INS TX29/1021Z TN13/1112Z

The location could not be found.

Current Aircraft on Radar: